createdAt,value
2018-11-07T00:00:01.617Z,6.13
2018-11-07T00:01:07.338Z,6.23
2018-11-07T00:02:13.261Z,6.20
2018-11-07T00:03:18.793Z,6.21
2018-11-07T00:04:24.781Z,6.19
2018-11-07T00:05:30.860Z,6.26
2018-11-07T00:06:36.829Z,6.43
2018-11-07T00:07:43.036Z,6.46
2018-11-07T00:08:49.401Z,6.32
2018-11-07T00:09:55.296Z,6.21
2018-11-07T00:11:01.205Z,6.16
2018-11-07T00:12:06.800Z,6.12
2018-11-07T00:13:13.015Z,6.14
2018-11-07T00:14:19.234Z,6.37
2018-11-07T00:15:25.119Z,6.28
2018-11-07T00:16:31.022Z,6.10
2018-11-07T00:17:36.923Z,5.94
2018-11-07T00:18:43.323Z,5.98
2018-11-07T00:19:49.193Z,6.20
2018-11-07T00:20:55.131Z,6.22
2018-11-07T00:22:01.314Z,6.15
2018-11-07T00:23:06.868Z,5.93
2018-11-07T00:24:13.081Z,5.86
2018-11-07T00:25:18.973Z,5.85
2018-11-07T00:26:24.921Z,6.01
2018-11-07T00:27:30.917Z,6.15
2018-11-07T00:28:36.843Z,6.11
2018-11-07T00:29:43.039Z,6.14
2018-11-07T00:30:48.942Z,6.09
2018-11-07T00:31:54.896Z,6.06
2018-11-07T00:33:00.847Z,6.06
2018-11-07T00:34:06.101Z,6.07
2018-11-07T00:35:12.063Z,6.09
2018-11-07T00:36:18.224Z,5.98
2018-11-07T00:37:23.798Z,5.87
2018-11-07T00:38:30.865Z,5.83
2018-11-07T00:39:37.077Z,5.80
2018-11-07T00:40:43.034Z,5.78
2018-11-07T00:41:48.927Z,5.74
2018-11-07T00:42:55.054Z,5.74
2018-11-07T00:44:01.251Z,5.75
2018-11-07T00:45:06.502Z,6.00
2018-11-07T00:46:12.384Z,6.15
2018-11-07T00:47:18.283Z,6.10
2018-11-07T00:48:24.593Z,6.06
2018-11-07T00:49:30.590Z,6.10
2018-11-07T00:50:36.450Z,6.11
2018-11-07T00:51:42.375Z,6.07
2018-11-07T00:52:48.269Z,6.08
2018-11-07T00:53:54.191Z,5.90
2018-11-07T00:55:00.095Z,5.64
2018-11-07T00:56:06.063Z,5.47
2018-11-07T00:57:11.998Z,5.54
2018-11-07T00:58:18.151Z,5.57
2018-11-07T00:59:25.018Z,5.36
2018-11-07T01:00:32.279Z,5.41
2018-11-07T01:01:38.949Z,5.50
2018-11-07T01:02:45.644Z,5.62
2018-11-07T01:03:52.486Z,5.70
2018-11-07T01:04:59.469Z,5.92
2018-11-07T01:06:04.711Z,5.94
2018-11-07T01:07:10.647Z,5.92
2018-11-07T01:08:16.636Z,5.81
2018-11-07T01:09:22.885Z,5.81
2018-11-07T01:10:28.961Z,6.06
2018-11-07T01:11:34.916Z,6.12
2018-11-07T01:12:40.829Z,5.88
2018-11-07T01:13:46.985Z,5.91
2018-11-07T01:14:52.906Z,6.06
2018-11-07T01:15:58.844Z,5.76
2018-11-07T01:17:04.437Z,5.62
2018-11-07T01:18:10.595Z,5.53
2018-11-07T01:19:16.772Z,5.57
2018-11-07T01:20:22.313Z,5.54
2018-11-07T01:21:28.221Z,5.51
2018-11-07T01:22:34.143Z,5.65
2018-11-07T01:23:40.146Z,5.71
2018-11-07T01:24:46.100Z,5.75
2018-11-07T01:25:58.488Z,5.87
2018-11-07T01:27:04.070Z,5.76
2018-11-07T01:28:10.325Z,5.91
2018-11-07T01:29:16.712Z,5.93
2018-11-07T01:30:22.656Z,5.90
2018-11-07T01:31:28.591Z,5.90
2018-11-07T01:32:34.155Z,5.98
2018-11-07T01:33:40.315Z,5.92
2018-11-07T01:34:46.601Z,5.86
2018-11-07T01:35:52.533Z,5.95
2018-11-07T01:36:58.461Z,5.94
2018-11-07T01:38:04.656Z,5.87
2018-11-07T01:39:10.609Z,5.83
2018-11-07T01:40:16.994Z,5.72
2018-11-07T01:41:22.955Z,5.78
2018-11-07T01:42:28.908Z,5.82
2018-11-07T01:43:35.152Z,5.67
2018-11-07T01:44:44.246Z,5.78
2018-11-07T01:45:50.172Z,5.84
2018-11-07T01:46:56.096Z,5.75
2018-11-07T01:48:02.260Z,5.67
2018-11-07T01:49:08.416Z,5.72
2018-11-07T01:50:14.621Z,5.66
2018-11-07T01:51:20.569Z,5.68
2018-11-07T01:52:26.481Z,5.70
2018-11-07T01:53:32.685Z,5.67
2018-11-07T01:54:38.879Z,5.62
2018-11-07T01:55:45.001Z,5.71
2018-11-07T01:56:51.568Z,5.70
2018-11-07T01:57:58.447Z,5.65
2018-11-07T01:59:05.812Z,5.72
2018-11-07T02:00:12.053Z,5.73
2018-11-07T02:01:17.935Z,5.72
2018-11-07T02:02:23.822Z,5.56
2018-11-07T02:03:29.733Z,5.60
2018-11-07T02:04:35.617Z,5.70
2018-11-07T02:05:41.522Z,5.74
2018-11-07T02:06:47.531Z,5.74
2018-11-07T02:07:55.039Z,5.68
2018-11-07T02:09:01.248Z,5.62
2018-11-07T02:10:06.464Z,5.55
2018-11-07T02:11:12.396Z,5.46
2018-11-07T02:12:18.279Z,5.38
2018-11-07T02:13:24.210Z,5.55
2018-11-07T02:14:30.472Z,5.54
2018-11-07T02:15:36.387Z,5.59
2018-11-07T02:16:42.262Z,5.56
2018-11-07T02:17:48.439Z,5.48
2018-11-07T02:18:54.694Z,5.53
2018-11-07T02:20:00.580Z,5.52
2018-11-07T02:21:05.771Z,5.47
2018-11-07T02:22:11.727Z,5.40
2018-11-07T02:23:18.143Z,5.49
2018-11-07T02:24:24.457Z,5.56
2018-11-07T02:25:30.375Z,5.43
2018-11-07T02:26:36.288Z,5.59
2018-11-07T02:27:42.126Z,5.83
2018-11-07T02:28:48.309Z,5.73
2018-11-07T02:29:54.574Z,5.55
2018-11-07T02:31:00.503Z,5.55
2018-11-07T02:32:06.415Z,5.47
2018-11-07T02:33:12.331Z,5.36
2018-11-07T02:34:18.545Z,5.34
2018-11-07T02:35:24.460Z,5.52
2018-11-07T02:36:30.385Z,5.47
2018-11-07T02:37:36.266Z,5.38
2018-11-07T02:38:42.487Z,5.26
2018-11-07T02:39:48.701Z,5.22
2018-11-07T02:40:54.577Z,5.23
2018-11-07T02:42:00.627Z,5.16
2018-11-07T02:43:06.942Z,5.21
2018-11-07T02:44:13.084Z,5.17
2018-11-07T02:45:19.021Z,5.33
2018-11-07T02:46:24.957Z,5.28
2018-11-07T02:47:30.861Z,5.38
2018-11-07T02:48:36.773Z,5.31
2018-11-07T02:49:42.994Z,5.21
2018-11-07T02:50:48.901Z,5.09
2018-11-07T02:51:54.844Z,5.13
2018-11-07T02:53:01.027Z,5.09
2018-11-07T02:54:07.224Z,5.07
2018-11-07T02:55:13.112Z,5.16
2018-11-07T02:56:19.516Z,5.11
2018-11-07T02:57:25.454Z,5.09
2018-11-07T02:58:31.424Z,5.14
2018-11-07T02:59:37.576Z,5.03
2018-11-07T03:00:43.501Z,5.00
2018-11-07T03:01:49.454Z,5.04
2018-11-07T03:02:55.389Z,5.03
2018-11-07T03:04:01.309Z,4.99
2018-11-07T03:05:06.854Z,4.90
2018-11-07T03:06:12.910Z,4.98
2018-11-07T03:07:18.768Z,4.99
2018-11-07T03:08:24.788Z,5.01
2018-11-07T03:09:31.024Z,4.93
2018-11-07T03:10:36.997Z,4.89
2018-11-07T03:11:43.531Z,4.86
2018-11-07T03:12:49.736Z,4.83
2018-11-07T03:13:56.058Z,4.92
2018-11-07T03:15:01.965Z,4.93
2018-11-07T03:16:07.541Z,4.99
2018-11-07T03:17:13.486Z,5.03
2018-11-07T03:18:19.708Z,4.99
2018-11-07T03:19:25.608Z,4.98
2018-11-07T03:20:31.542Z,4.90
2018-11-07T03:21:37.490Z,4.87
2018-11-07T03:22:43.677Z,4.96
2018-11-07T03:23:49.865Z,5.15
2018-11-07T03:24:55.574Z,5.10
2018-11-07T03:26:01.497Z,5.10
2018-11-07T03:27:07.666Z,5.20
2018-11-07T03:28:13.606Z,5.18
2018-11-07T03:29:19.597Z,5.24
2018-11-07T03:30:25.543Z,5.35
2018-11-07T03:31:31.475Z,5.43
2018-11-07T03:32:40.194Z,5.33
2018-11-07T03:33:49.435Z,5.12
2018-11-07T03:34:55.320Z,5.10
2018-11-07T03:36:01.268Z,5.00
2018-11-07T03:37:07.256Z,4.94
2018-11-07T03:38:13.456Z,4.91
2018-11-07T03:39:19.663Z,4.84
2018-11-07T03:40:25.588Z,4.87
2018-11-07T03:41:31.193Z,4.78
2018-11-07T03:42:37.162Z,4.82
2018-11-07T03:43:43.110Z,4.92
2018-11-07T03:44:49.058Z,5.07
2018-11-07T03:45:54.750Z,4.96
2018-11-07T03:47:00.650Z,4.83
2018-11-07T03:48:06.858Z,4.87
2018-11-07T03:49:13.123Z,4.94
2018-11-07T03:50:19.034Z,4.86
2018-11-07T03:51:24.994Z,4.79
2018-11-07T03:52:42.963Z,4.87
2018-11-07T03:54:08.881Z,4.93
2018-11-07T03:55:24.363Z,5.13
2018-11-07T03:56:41.837Z,5.02
2018-11-07T03:58:52.788Z,4.86
2018-11-07T03:59:58.725Z,4.87
2018-11-07T04:01:08.642Z,5.04
2018-11-07T04:02:16.624Z,5.10
2018-11-07T04:03:45.282Z,5.02
2018-11-07T04:04:57.858Z,5.00
2018-11-07T04:06:17.705Z,5.08
2018-11-07T04:07:31.229Z,5.01
2018-11-07T04:08:47.178Z,5.16
2018-11-07T04:10:16.575Z,4.97
2018-11-07T04:12:01.825Z,5.04
2018-11-07T04:13:07.813Z,4.95
2018-11-07T04:14:24.851Z,4.94
2018-11-07T04:15:36.337Z,5.03
2018-11-07T04:16:49.638Z,5.03
2018-11-07T04:18:25.402Z,4.98
2018-11-07T04:19:47.858Z,4.97
2018-11-07T04:20:56.358Z,4.88
2018-11-07T04:22:21.281Z,4.93
2018-11-07T04:23:35.219Z,4.97
2018-11-07T04:24:52.093Z,4.95
2018-11-07T04:26:12.867Z,5.00
2018-11-07T04:27:27.949Z,5.11
2018-11-07T04:28:42.088Z,5.07
2018-11-07T04:29:59.683Z,5.14
2018-11-07T04:31:05.664Z,5.17
2018-11-07T04:32:11.577Z,5.21
2018-11-07T04:33:17.500Z,5.12
2018-11-07T04:34:23.717Z,5.07
2018-11-07T04:35:40.478Z,5.18
2018-11-07T04:36:56.094Z,5.22
2018-11-07T04:38:15.581Z,5.22
2018-11-07T04:39:30.230Z,5.15
2018-11-07T04:40:44.472Z,5.07
2018-11-07T04:42:00.205Z,5.00
2018-11-07T04:43:54.336Z,5.01
2018-11-07T04:45:01.398Z,4.94
2018-11-07T04:46:13.806Z,4.91
2018-11-07T04:47:36.439Z,4.98
2018-11-07T04:48:54.308Z,4.91
2018-11-07T04:50:16.663Z,4.90
2018-11-07T04:51:33.335Z,5.04
2018-11-07T04:52:49.439Z,5.19
2018-11-07T04:54:06.242Z,5.15
2018-11-07T04:55:24.221Z,5.16
2018-11-07T04:56:41.807Z,5.23
2018-11-07T04:58:13.478Z,5.16
2018-11-07T04:59:29.190Z,5.03
2018-11-07T05:00:43.575Z,4.97
2018-11-07T05:01:59.542Z,4.99
2018-11-07T05:03:06.975Z,4.86
2018-11-07T05:04:13.365Z,4.80
2018-11-07T05:05:24.536Z,4.73
2018-11-07T05:06:30.980Z,4.68
2018-11-07T05:07:51.743Z,4.65
2018-11-07T05:09:02.592Z,4.61
2018-11-07T05:10:20.042Z,4.65
2018-11-07T05:11:36.138Z,4.72
2018-11-07T05:12:51.106Z,4.92
2018-11-07T05:14:07.696Z,4.94
2018-11-07T05:15:25.363Z,4.94
2018-11-07T05:16:47.775Z,4.84
2018-11-07T05:18:11.006Z,4.95
2018-11-07T05:19:27.665Z,4.85
2018-11-07T05:20:47.451Z,4.85
2018-11-07T05:22:07.585Z,4.86
2018-11-07T05:23:48.052Z,4.86
2018-11-07T05:25:00.624Z,4.81
2018-11-07T05:26:23.846Z,4.75
2018-11-07T05:27:33.408Z,4.68
2018-11-07T05:28:43.017Z,4.65
2018-11-07T05:29:55.178Z,4.60
2018-11-07T05:31:19.204Z,4.58
2018-11-07T05:32:28.101Z,4.58
2018-11-07T05:33:35.601Z,4.64
2018-11-07T05:34:46.017Z,4.74
2018-11-07T05:35:53.374Z,4.78
2018-11-07T05:37:08.912Z,4.77
2018-11-07T05:38:20.399Z,4.81
2018-11-07T05:39:37.793Z,4.84
2018-11-07T05:40:56.175Z,4.89
2018-11-07T05:42:15.366Z,4.84
2018-11-07T05:43:31.010Z,4.83
2018-11-07T05:44:51.047Z,4.80
2018-11-07T05:46:06.905Z,4.81
2018-11-07T05:47:23.301Z,4.78
2018-11-07T05:48:40.117Z,4.75
2018-11-07T05:49:56.605Z,4.72
2018-11-07T05:51:05.601Z,4.80
2018-11-07T05:52:13.832Z,4.80
2018-11-07T05:53:22.832Z,4.82
2018-11-07T05:54:31.390Z,4.78
2018-11-07T05:55:44.041Z,4.77
2018-11-07T05:57:01.647Z,4.77
2018-11-07T05:58:17.994Z,4.76
2018-11-07T05:59:37.597Z,4.78
2018-11-07T06:00:56.969Z,4.78
2018-11-07T06:02:17.349Z,4.91
2018-11-07T06:03:42.358Z,4.85
2018-11-07T06:04:58.257Z,4.79
2018-11-07T06:06:28.571Z,4.78
2018-11-07T06:07:36.996Z,4.74
2018-11-07T06:08:54.542Z,4.74
2018-11-07T06:10:15.298Z,4.73
2018-11-07T06:11:33.854Z,4.83
2018-11-07T06:12:57.670Z,4.81
2018-11-07T06:14:27.847Z,4.87
2018-11-07T06:15:38.254Z,4.94
2018-11-07T06:16:54.916Z,4.96
2018-11-07T06:18:16.324Z,4.88
2018-11-07T06:19:38.202Z,4.86
2018-11-07T06:20:55.891Z,4.94
2018-11-07T06:22:12.623Z,4.93
2018-11-07T06:23:41.137Z,5.15
2018-11-07T06:25:01.343Z,5.10
2018-11-07T06:26:22.652Z,5.10
2018-11-07T06:27:42.126Z,5.07
2018-11-07T06:28:58.910Z,4.93
2018-11-07T06:30:19.033Z,4.86
2018-11-07T06:31:34.589Z,4.81
2018-11-07T06:32:54.064Z,4.73
2018-11-07T06:34:10.495Z,4.73
2018-11-07T06:35:30.608Z,4.69
2018-11-07T06:36:54.620Z,4.68
2018-11-07T06:38:13.279Z,4.70
2018-11-07T06:39:33.575Z,4.83
2018-11-07T06:40:50.189Z,4.86
2018-11-07T06:42:06.964Z,4.78
2018-11-07T06:43:58.680Z,4.73
2018-11-07T06:45:07.196Z,4.76
2018-11-07T06:46:30.343Z,4.76
2018-11-07T06:47:36.825Z,4.75
2018-11-07T06:48:55.613Z,4.67
2018-11-07T06:50:14.672Z,4.71
2018-11-07T06:51:32.949Z,4.75
2018-11-07T06:52:39.121Z,4.75
2018-11-07T06:54:25.095Z,4.75
2018-11-07T06:55:40.144Z,4.85
2018-11-07T06:56:48.250Z,4.96
2018-11-07T06:57:55.653Z,5.16
2018-11-07T06:59:04.076Z,5.43
2018-11-07T07:00:11.218Z,5.64
2018-11-07T07:01:20.478Z,5.68
2018-11-07T07:02:28.009Z,5.61
2018-11-07T07:03:35.959Z,5.50
2018-11-07T07:04:44.928Z,5.32
2018-11-07T07:05:52.840Z,5.23
2018-11-07T07:07:02.332Z,5.25
2018-11-07T07:08:11.889Z,5.24
2018-11-07T07:09:19.744Z,5.27
2018-11-07T07:10:32.001Z,5.41
2018-11-07T07:11:39.617Z,5.43
2018-11-07T07:12:48.148Z,5.44
2018-11-07T07:13:56.382Z,5.49
2018-11-07T07:15:06.128Z,5.51
2018-11-07T07:16:19.457Z,5.51
2018-11-07T07:17:25.635Z,5.61
2018-11-07T07:18:33.179Z,5.69
2018-11-07T07:19:39.383Z,5.73
2018-11-07T07:20:49.908Z,5.86
2018-11-07T07:21:58.401Z,5.92
2018-11-07T07:23:08.091Z,5.90
2018-11-07T07:24:18.720Z,5.89
2018-11-07T07:25:32.476Z,6.06
2018-11-07T07:26:40.182Z,6.27
2018-11-07T07:27:47.231Z,6.40
2018-11-07T07:28:55.870Z,6.40
2018-11-07T07:30:04.963Z,6.39
2018-11-07T07:31:12.933Z,6.52
2018-11-07T07:32:26.406Z,6.47
2018-11-07T07:33:35.204Z,6.50
2018-11-07T07:34:42.412Z,6.46
2018-11-07T07:35:51.672Z,6.41
2018-11-07T07:36:57.970Z,6.30
2018-11-07T07:38:05.545Z,6.37
2018-11-07T07:39:15.245Z,6.35
2018-11-07T07:40:23.252Z,6.33
2018-11-07T07:41:31.448Z,6.57
2018-11-07T07:42:37.679Z,6.91
2018-11-07T07:43:45.161Z,7.16
2018-11-07T07:44:53.365Z,7.25
2018-11-07T07:46:01.309Z,7.35
2018-11-07T07:47:08.786Z,7.37
2018-11-07T07:48:18.179Z,7.51
2018-11-07T07:49:26.440Z,7.63
2018-11-07T07:50:35.614Z,7.74
2018-11-07T07:51:46.891Z,7.94
2018-11-07T07:52:53.860Z,8.18
2018-11-07T07:54:00.934Z,8.38
2018-11-07T07:55:07.931Z,8.54
2018-11-07T07:56:16.312Z,8.53
2018-11-07T07:57:25.004Z,8.55
2018-11-07T07:58:33.033Z,8.50
2018-11-07T07:59:39.783Z,8.47
2018-11-07T08:00:48.593Z,8.50
2018-11-07T08:01:57.431Z,8.44
2018-11-07T08:03:07.533Z,8.46
2018-11-07T08:04:13.752Z,8.44
2018-11-07T08:05:24.559Z,8.37
2018-11-07T08:06:35.325Z,8.45
2018-11-07T08:07:47.945Z,8.55
2018-11-07T08:08:56.239Z,8.65
2018-11-07T08:10:03.098Z,8.79
2018-11-07T08:11:12.925Z,8.92
2018-11-07T08:12:24.630Z,9.10
2018-11-07T08:13:37.816Z,9.22
2018-11-07T08:14:45.690Z,9.25
2018-11-07T08:15:52.597Z,9.31
2018-11-07T08:17:02.014Z,9.31
2018-11-07T08:18:09.898Z,9.37
2018-11-07T08:19:18.370Z,9.36
2018-11-07T08:20:32.920Z,9.26
2018-11-07T08:21:41.236Z,9.19
2018-11-07T08:22:49.265Z,9.23
2018-11-07T08:23:56.714Z,9.31
2018-11-07T08:25:03.175Z,9.53
2018-11-07T08:26:11.812Z,9.54
2018-11-07T08:27:22.254Z,9.75
2018-11-07T08:28:31.281Z,9.80
2018-11-07T08:29:39.768Z,9.90
2018-11-07T08:30:46.121Z,9.97
2018-11-07T08:31:56.067Z,9.99
2018-11-07T08:33:04.749Z,9.98
2018-11-07T08:34:14.835Z,9.89
2018-11-07T08:35:25.302Z,9.93
2018-11-07T08:36:33.377Z,9.96
2018-11-07T08:37:41.638Z,10.19
2018-11-07T08:38:48.104Z,10.38
2018-11-07T08:39:57.253Z,10.38
2018-11-07T08:41:06.044Z,10.35
2018-11-07T08:42:14.494Z,10.31
2018-11-07T08:43:26.645Z,10.36
2018-11-07T08:44:50.538Z,10.35
2018-11-07T08:45:57.011Z,10.47
2018-11-07T08:47:04.352Z,10.58
2018-11-07T08:48:12.108Z,10.51
2018-11-07T08:49:19.537Z,10.74
2018-11-07T08:50:29.499Z,10.57
2018-11-07T08:51:37.390Z,10.55
2018-11-07T08:52:45.831Z,10.50
2018-11-07T08:53:52.064Z,10.69
2018-11-07T08:54:59.088Z,10.81
2018-11-07T08:56:05.007Z,10.91
2018-11-07T08:57:11.579Z,10.81
2018-11-07T08:58:20.725Z,10.71
2018-11-07T08:59:28.457Z,10.70
2018-11-07T09:00:37.817Z,10.75
2018-11-07T09:01:46.336Z,10.69
2018-11-07T09:02:54.143Z,11.02
2018-11-07T09:04:02.707Z,11.05
2018-11-07T09:05:10.683Z,11.08
2018-11-07T09:06:18.647Z,11.23
2018-11-07T09:07:26.273Z,11.29
2018-11-07T09:08:33.864Z,11.32
2018-11-07T09:09:42.200Z,11.42
2018-11-07T09:10:49.586Z,11.42
2018-11-07T09:12:00.129Z,11.28
2018-11-07T09:13:09.676Z,11.39
2018-11-07T09:14:17.267Z,11.56
2018-11-07T09:15:26.274Z,11.50
2018-11-07T09:16:37.077Z,11.65
2018-11-07T09:17:43.252Z,11.61
2018-11-07T09:18:51.212Z,11.55
2018-11-07T09:20:00.147Z,11.52
2018-11-07T09:21:07.754Z,11.73
2018-11-07T09:22:17.691Z,11.80
2018-11-07T09:23:28.696Z,11.67
2018-11-07T09:24:36.426Z,11.81
2018-11-07T09:25:42.941Z,11.81
2018-11-07T09:26:53.279Z,11.68
2018-11-07T09:28:03.340Z,11.75
2018-11-07T09:29:12.284Z,11.81
2018-11-07T09:30:21.149Z,11.89
2018-11-07T09:31:30.342Z,12.02
2018-11-07T09:32:36.857Z,12.08
2018-11-07T09:33:43.181Z,12.21
2018-11-07T09:34:50.762Z,12.17
2018-11-07T09:35:58.365Z,12.27
2018-11-07T09:37:07.696Z,12.21
2018-11-07T09:38:15.418Z,12.29
2018-11-07T09:39:22.025Z,12.19
2018-11-07T09:40:30.203Z,12.10
2018-11-07T09:41:38.533Z,11.96
2018-11-07T09:42:48.479Z,11.97
2018-11-07T09:43:57.039Z,11.94
2018-11-07T09:45:04.226Z,12.01
2018-11-07T09:46:10.637Z,11.95
2018-11-07T09:47:20.363Z,11.91
2018-11-07T09:48:27.529Z,12.07
2018-11-07T09:49:33.867Z,12.15
2018-11-07T09:50:40.124Z,12.23
2018-11-07T09:51:48.133Z,12.55
2018-11-07T09:52:55.966Z,12.62
2018-11-07T09:54:05.461Z,12.67
2018-11-07T09:55:11.904Z,12.79
2018-11-07T09:56:23.665Z,12.91
2018-11-07T09:57:30.395Z,12.92
2018-11-07T09:58:37.849Z,12.93
2018-11-07T09:59:45.168Z,12.90
2018-11-07T10:00:53.184Z,12.96
2018-11-07T10:02:01.572Z,12.96
2018-11-07T10:03:09.091Z,12.83
2018-11-07T10:04:16.978Z,12.88
2018-11-07T10:05:24.919Z,13.01
2018-11-07T10:06:31.494Z,13.16
2018-11-07T10:07:39.495Z,13.20
2018-11-07T10:08:47.668Z,13.15
2018-11-07T10:09:55.326Z,13.35
2018-11-07T10:11:02.390Z,13.45
2018-11-07T10:12:09.380Z,13.54
2018-11-07T10:13:20.312Z,13.39
2018-11-07T10:14:28.605Z,13.44
2018-11-07T10:15:36.980Z,13.46
2018-11-07T10:16:48.419Z,13.55
2018-11-07T10:17:56.219Z,13.62
2018-11-07T10:19:02.229Z,13.67
2018-11-07T10:20:08.097Z,13.73
2018-11-07T10:21:18.316Z,13.81
2018-11-07T10:22:26.623Z,13.87
2018-11-07T10:23:35.055Z,13.83
2018-11-07T10:24:42.358Z,13.98
2018-11-07T10:25:50.018Z,13.83
2018-11-07T10:26:56.425Z,13.94
2018-11-07T10:28:06.609Z,13.83
2018-11-07T10:29:19.079Z,13.87
2018-11-07T10:30:25.761Z,13.85
2018-11-07T10:31:32.523Z,13.89
2018-11-07T10:32:38.613Z,14.17
2018-11-07T10:33:46.417Z,14.29
2018-11-07T10:34:55.887Z,14.34
2018-11-07T10:36:04.965Z,14.38
2018-11-07T10:37:13.098Z,14.53
2018-11-07T10:38:20.814Z,14.51
2018-11-07T10:39:28.966Z,14.47
2018-11-07T10:40:35.320Z,14.31
2018-11-07T10:41:45.559Z,14.08
2018-11-07T10:42:56.029Z,14.27
2018-11-07T10:44:03.844Z,14.21
2018-11-07T10:45:13.708Z,14.41
2018-11-07T10:46:21.863Z,14.48
2018-11-07T10:47:34.605Z,14.26
2018-11-07T10:48:41.892Z,14.29
2018-11-07T10:49:51.522Z,14.52
2018-11-07T10:50:59.936Z,14.44
2018-11-07T10:52:05.683Z,14.60
2018-11-07T10:53:16.449Z,14.49
2018-11-07T10:54:24.567Z,14.56
2018-11-07T10:55:34.077Z,14.41
2018-11-07T10:56:45.100Z,14.49
2018-11-07T10:57:53.120Z,14.55
2018-11-07T10:58:59.324Z,14.53
2018-11-07T11:00:05.914Z,14.63
2018-11-07T11:01:12.536Z,14.68
2018-11-07T11:02:20.549Z,14.55
2018-11-07T11:03:32.563Z,14.66
2018-11-07T11:04:39.408Z,14.53
2018-11-07T11:05:49.849Z,14.83
2018-11-07T11:06:58.528Z,14.80
2018-11-07T11:08:06.199Z,14.88
2018-11-07T11:09:15.991Z,14.87
2018-11-07T11:10:22.569Z,14.92
2018-11-07T11:11:31.130Z,15.03
2018-11-07T11:12:38.106Z,15.16
2018-11-07T11:13:45.634Z,15.11
2018-11-07T11:15:00.126Z,14.86
2018-11-07T11:16:10.807Z,14.81
2018-11-07T11:17:19.967Z,14.99
2018-11-07T11:18:26.448Z,14.98
2018-11-07T11:19:36.214Z,14.94
2018-11-07T11:20:45.535Z,14.86
2018-11-07T11:21:55.412Z,14.87
2018-11-07T11:23:01.549Z,15.08
2018-11-07T11:24:10.392Z,15.21
2018-11-07T11:25:16.477Z,15.26
2018-11-07T11:26:26.905Z,15.23
2018-11-07T11:27:33.327Z,15.34
2018-11-07T11:28:40.766Z,15.19
2018-11-07T11:29:49.434Z,15.37
2018-11-07T11:30:56.455Z,15.33
2018-11-07T11:32:03.780Z,15.42
2018-11-07T11:33:11.197Z,15.33
2018-11-07T11:34:18.529Z,15.33
2018-11-07T11:35:26.218Z,15.37
2018-11-07T11:36:33.096Z,15.36
2018-11-07T11:37:45.817Z,15.20
2018-11-07T11:38:56.839Z,15.10
2018-11-07T11:40:05.936Z,15.00
2018-11-07T11:41:13.588Z,15.26
2018-11-07T11:42:20.349Z,15.32
2018-11-07T11:43:27.991Z,15.54
2018-11-07T11:44:34.943Z,15.59
2018-11-07T11:45:48.333Z,15.65
2018-11-07T11:46:56.537Z,15.69
2018-11-07T11:48:03.378Z,15.42
2018-11-07T11:49:14.361Z,15.49
2018-11-07T11:50:24.915Z,15.68
2018-11-07T11:51:32.154Z,15.67
2018-11-07T11:52:40.848Z,15.56
2018-11-07T11:53:48.623Z,15.39
2018-11-07T11:54:56.115Z,15.35
2018-11-07T11:56:04.676Z,15.30
2018-11-07T11:57:12.312Z,15.36
2018-11-07T11:58:20.176Z,15.38
2018-11-07T11:59:34.225Z,15.40
2018-11-07T12:00:40.778Z,15.46
2018-11-07T12:01:49.705Z,15.69
2018-11-07T12:02:56.289Z,15.91
2018-11-07T12:04:03.833Z,15.96
2018-11-07T12:05:10.639Z,16.02
2018-11-07T12:06:17.747Z,16.09
2018-11-07T12:07:26.086Z,16.02
2018-11-07T12:08:34.284Z,15.83
2018-11-07T12:09:43.333Z,15.67
2018-11-07T12:10:49.646Z,15.65
2018-11-07T12:12:00.438Z,15.74
2018-11-07T12:13:11.039Z,16.04
2018-11-07T12:14:18.073Z,16.15
2018-11-07T12:15:26.095Z,15.99
2018-11-07T12:16:33.551Z,16.26
2018-11-07T12:17:41.531Z,16.06
2018-11-07T12:18:49.397Z,16.16
2018-11-07T12:19:56.878Z,16.33
2018-11-07T12:21:03.350Z,16.33
2018-11-07T12:22:13.772Z,16.49
2018-11-07T12:23:21.468Z,16.62
2018-11-07T12:24:29.978Z,16.50
2018-11-07T12:25:38.131Z,16.51
2018-11-07T12:26:46.038Z,16.35
2018-11-07T12:27:53.875Z,16.33
2018-11-07T12:29:02.026Z,16.37
2018-11-07T12:30:09.992Z,16.50
2018-11-07T12:31:16.941Z,16.52
2018-11-07T12:32:26.111Z,16.47
2018-11-07T12:33:33.574Z,16.53
2018-11-07T12:34:42.920Z,16.63
2018-11-07T12:35:54.617Z,16.79
2018-11-07T12:37:04.072Z,16.82
2018-11-07T12:38:14.443Z,16.79
2018-11-07T12:39:22.282Z,16.98
2018-11-07T12:40:30.269Z,17.00
2018-11-07T12:41:39.013Z,17.04
2018-11-07T12:42:47.982Z,16.86
2018-11-07T12:43:55.742Z,16.95
2018-11-07T12:45:02.927Z,17.07
2018-11-07T12:46:08.790Z,17.22
2018-11-07T12:47:16.283Z,17.37
2018-11-07T12:48:24.280Z,17.43
2018-11-07T12:49:32.498Z,17.41
2018-11-07T12:50:41.225Z,17.25
2018-11-07T12:51:47.531Z,17.13
2018-11-07T12:52:56.395Z,16.94
2018-11-07T12:54:05.535Z,17.10
2018-11-07T12:55:13.842Z,17.14
2018-11-07T12:56:21.454Z,17.36
2018-11-07T12:57:31.579Z,17.64
2018-11-07T12:58:37.895Z,17.81
2018-11-07T12:59:44.870Z,17.79
2018-11-07T13:00:53.223Z,17.88
2018-11-07T13:02:03.624Z,17.96
2018-11-07T13:03:17.423Z,17.95
2018-11-07T13:04:27.344Z,17.90
2018-11-07T13:05:36.509Z,17.83
2018-11-07T13:06:48.740Z,17.71
2018-11-07T13:07:58.708Z,17.88
2018-11-07T13:09:07.257Z,18.05
2018-11-07T13:10:13.879Z,17.69
2018-11-07T13:11:22.557Z,17.50
2018-11-07T13:12:29.526Z,17.87
2018-11-07T13:13:36.133Z,17.90
2018-11-07T13:14:46.204Z,17.87
2018-11-07T13:15:54.485Z,17.85
2018-11-07T13:17:01.599Z,18.17
2018-11-07T13:18:10.160Z,17.72
2018-11-07T13:19:16.862Z,17.56
2018-11-07T13:20:24.054Z,17.57
2018-11-07T13:21:33.233Z,17.86
2018-11-07T13:22:46.382Z,18.12
2018-11-07T13:23:55.171Z,18.37
2018-11-07T13:25:04.538Z,18.33
2018-11-07T13:26:14.849Z,18.30
2018-11-07T13:27:25.790Z,18.32
2018-11-07T13:28:34.017Z,18.60
2018-11-07T13:29:47.164Z,18.43
2018-11-07T13:30:56.241Z,18.16
2018-11-07T13:32:03.769Z,18.37
2018-11-07T13:33:11.605Z,18.72
2018-11-07T13:34:21.171Z,18.84
2018-11-07T13:35:27.419Z,18.85
2018-11-07T13:36:34.056Z,18.80
2018-11-07T13:37:44.317Z,18.69
2018-11-07T13:38:52.702Z,18.36
2018-11-07T13:39:58.543Z,18.37
2018-11-07T13:41:04.396Z,18.38
2018-11-07T13:42:10.660Z,18.49
2018-11-07T13:43:17.024Z,18.57
2018-11-07T13:44:26.591Z,18.30
2018-11-07T13:45:34.277Z,18.41
2018-11-07T13:46:46.026Z,18.46
2018-11-07T13:47:53.682Z,18.19
2018-11-07T13:49:00.655Z,18.14
2018-11-07T13:50:09.615Z,18.01
2018-11-07T13:51:16.676Z,17.96
2018-11-07T13:52:25.850Z,18.08
2018-11-07T13:53:32.624Z,18.08
2018-11-07T13:54:38.784Z,17.56
2018-11-07T13:55:46.294Z,17.82
2018-11-07T13:56:52.519Z,17.59
2018-11-07T13:58:02.812Z,17.70
2018-11-07T13:59:10.072Z,17.85
2018-11-07T14:00:18.712Z,17.52
2018-11-07T14:01:28.873Z,17.40
2018-11-07T14:02:37.740Z,17.52
2018-11-07T14:03:46.935Z,17.49
2018-11-07T14:04:55.726Z,17.21
2018-11-07T14:06:03.788Z,17.02
2018-11-07T14:07:10.253Z,17.10
2018-11-07T14:08:17.416Z,16.96
2018-11-07T14:09:27.032Z,16.77
2018-11-07T14:10:40.021Z,16.72
2018-11-07T14:11:50.189Z,16.91
2018-11-07T14:12:57.688Z,16.94
2018-11-07T14:14:06.640Z,16.95
2018-11-07T14:15:19.500Z,16.83
2018-11-07T14:16:29.282Z,17.07
2018-11-07T14:17:36.878Z,17.15
2018-11-07T14:18:45.168Z,16.85
2018-11-07T14:19:56.024Z,16.81
2018-11-07T14:21:03.402Z,16.62
2018-11-07T14:22:15.083Z,16.48
2018-11-07T14:23:21.254Z,16.46
2018-11-07T14:24:33.135Z,16.50
2018-11-07T14:25:40.223Z,16.65
2018-11-07T14:26:50.988Z,16.49
2018-11-07T14:28:00.590Z,16.67
2018-11-07T14:29:09.134Z,16.29
2018-11-07T14:30:17.489Z,16.05
2018-11-07T14:31:27.221Z,15.95
2018-11-07T14:32:37.029Z,15.96
2018-11-07T14:33:44.403Z,16.20
2018-11-07T14:34:51.553Z,16.32
2018-11-07T14:35:58.828Z,16.29
2018-11-07T14:37:09.885Z,16.26
2018-11-07T14:38:18.767Z,16.26
2018-11-07T14:39:27.088Z,16.31
2018-11-07T14:40:37.201Z,16.12
2018-11-07T14:41:46.004Z,16.02
2018-11-07T14:42:53.381Z,15.97
2018-11-07T14:44:01.769Z,15.89
2018-11-07T14:45:14.881Z,15.71
2018-11-07T14:46:28.941Z,15.68
2018-11-07T14:47:37.667Z,15.61
2018-11-07T14:48:46.492Z,15.48
2018-11-07T14:49:55.403Z,15.28
2018-11-07T14:51:04.102Z,15.19
2018-11-07T14:52:11.712Z,15.15
2018-11-07T14:53:19.941Z,15.19
2018-11-07T14:54:26.760Z,15.11
2018-11-07T14:55:34.209Z,15.12
2018-11-07T14:56:42.739Z,15.09
2018-11-07T14:57:52.250Z,15.05
2018-11-07T14:58:59.605Z,15.01
2018-11-07T15:00:09.081Z,14.92
2018-11-07T15:01:17.623Z,14.92
2018-11-07T15:02:25.428Z,14.96
2018-11-07T15:03:34.170Z,14.74
2018-11-07T15:04:42.595Z,14.81
2018-11-07T15:05:48.900Z,14.78
2018-11-07T15:06:57.933Z,14.69
2018-11-07T15:08:04.301Z,14.64
2018-11-07T15:09:12.714Z,14.54
2018-11-07T15:10:18.882Z,14.46
2018-11-07T15:11:28.225Z,14.27